createdAt,value
2023-02-17T00:00:58.655Z,98896.44
2023-02-17T00:03:28.233Z,98931.75
2023-02-17T00:05:54.829Z,98913.66
2023-02-17T00:08:22.822Z,98905.91
2023-02-17T00:10:59.070Z,98927.44
2023-02-17T00:13:26.272Z,98925.81
2023-02-17T00:15:53.214Z,98920.25
2023-02-17T00:18:20.067Z,98906.72
2023-02-17T00:20:46.655Z,98912.88
2023-02-17T00:23:13.433Z,98897.44
2023-02-17T00:25:40.836Z,98909.56
2023-02-17T00:28:07.702Z,98918.19
2023-02-17T00:30:35.416Z,98901.56
2023-02-17T00:33:02.255Z,98875.13
2023-02-17T00:35:29.060Z,98908.94
2023-02-17T00:37:55.701Z,98909.00
2023-02-17T00:40:22.602Z,98845.97
2023-02-17T00:42:49.751Z,98897.25
2023-02-17T00:45:18.195Z,98902.22
2023-02-17T00:47:44.708Z,98852.16
2023-02-17T00:50:12.328Z,98897.91
2023-02-17T00:52:40.298Z,98884.75
2023-02-17T00:55:07.424Z,98872.63
2023-02-17T00:57:36.389Z,98907.13
2023-02-17T01:00:05.371Z,98906.28
2023-02-17T01:02:33.784Z,98873.19
2023-02-17T01:05:00.929Z,98889.44
2023-02-17T01:07:27.531Z,98881.81
2023-02-17T01:09:54.129Z,98905.88
2023-02-17T01:12:22.273Z,98906.28
2023-02-17T01:14:49.513Z,98885.16
2023-02-17T01:17:16.058Z,98819.06
2023-02-17T01:19:42.766Z,98871.13
2023-02-17T01:22:10.004Z,98896.00
2023-02-17T01:24:38.814Z,98896.47
2023-02-17T01:27:05.500Z,98897.44
2023-02-17T01:29:32.318Z,98881.25
2023-02-17T01:32:00.026Z,98868.72
2023-02-17T01:34:27.362Z,98890.91
2023-02-17T01:36:54.122Z,98894.31
2023-02-17T01:39:21.426Z,98835.66
2023-02-17T01:41:48.056Z,98874.28
2023-02-17T01:44:17.944Z,98882.25
2023-02-17T01:46:49.405Z,98899.66
2023-02-17T01:49:24.447Z,98895.63
2023-02-17T01:52:02.326Z,98892.34
2023-02-17T01:54:46.492Z,98900.94
2023-02-17T01:57:17.881Z,98860.34
2023-02-17T01:59:47.724Z,98868.56
2023-02-17T02:02:15.573Z,98868.19
2023-02-17T02:04:46.870Z,98853.59
2023-02-17T02:07:19.561Z,98863.19
2023-02-17T02:09:57.271Z,98874.28
2023-02-17T02:12:28.380Z,98867.19
2023-02-17T02:15:05.428Z,98862.63
2023-02-17T02:17:39.574Z,98828.28
2023-02-17T02:20:42.404Z,98869.56
2023-02-17T02:23:28.351Z,98847.13
2023-02-17T02:26:17.300Z,98864.41
2023-02-17T02:29:06.283Z,98864.22
2023-02-17T02:31:50.272Z,98822.97
2023-02-17T02:34:38.915Z,98858.94
2023-02-17T02:37:32.275Z,98858.31
2023-02-17T02:40:02.835Z,98853.00
2023-02-17T02:42:33.032Z,98851.34
2023-02-17T02:45:00.747Z,98844.31
2023-02-17T02:47:49.292Z,98832.84
2023-02-17T02:50:57.914Z,98836.25
2023-02-17T02:53:49.070Z,98838.50
2023-02-17T02:57:02.852Z,98842.19
2023-02-17T02:59:45.570Z,98837.72
2023-02-17T03:02:37.724Z,98824.00
2023-02-17T03:05:16.962Z,98836.25
2023-02-17T03:07:43.968Z,98834.41
2023-02-17T03:10:10.918Z,98825.53
2023-02-17T03:12:39.868Z,98815.50
2023-02-17T03:15:14.537Z,98786.53
2023-02-17T03:17:42.200Z,98812.78
2023-02-17T03:20:09.602Z,98800.47
2023-02-17T03:22:42.746Z,98815.59
2023-02-17T03:25:09.954Z,98801.47
2023-02-17T03:27:37.685Z,98806.81
2023-02-17T03:30:05.069Z,98805.84
2023-02-17T03:32:31.767Z,98731.63
2023-02-17T03:34:58.650Z,98803.97
2023-02-17T03:37:25.250Z,98743.47
2023-02-17T03:39:51.990Z,98809.72
2023-02-17T03:42:20.461Z,98805.19
2023-02-17T03:44:47.501Z,98781.38
2023-02-17T03:47:14.136Z,98823.81
2023-02-17T03:49:40.756Z,98729.63
2023-02-17T03:52:12.110Z,98801.72
2023-02-17T03:54:39.969Z,98817.50
2023-02-17T03:57:08.975Z,98803.53
2023-02-17T03:59:36.316Z,98815.84
2023-02-17T04:02:03.337Z,98750.44
2023-02-17T04:04:30.500Z,98811.13
2023-02-17T04:07:01.024Z,98807.63
2023-02-17T04:09:27.810Z,98721.78
2023-02-17T04:11:54.441Z,98775.94
2023-02-17T04:14:22.945Z,98818.63
2023-02-17T04:16:50.758Z,98793.81
2023-02-17T04:19:18.102Z,98806.41
2023-02-17T04:21:45.403Z,98816.41
2023-02-17T04:24:11.973Z,98801.59
2023-02-17T04:26:38.644Z,98816.56
2023-02-17T04:29:05.352Z,98825.81
2023-02-17T04:31:32.096Z,98811.72
2023-02-17T04:33:59.005Z,98793.13
2023-02-17T04:36:25.736Z,98776.69
2023-02-17T04:38:54.795Z,98809.19
2023-02-17T04:41:21.351Z,98810.84
2023-02-17T04:43:48.196Z,98807.38
2023-02-17T04:46:14.776Z,98818.28
2023-02-17T04:48:42.055Z,98763.19
2023-02-17T04:51:08.951Z,98811.25
2023-02-17T04:53:35.744Z,98770.25
2023-02-17T04:56:02.554Z,98814.53
2023-02-17T04:58:29.523Z,98779.22
2023-02-17T05:00:59.240Z,98810.03
2023-02-17T05:03:26.141Z,98808.56
2023-02-17T05:05:52.957Z,98786.19
2023-02-17T05:08:19.784Z,98812.91
2023-02-17T05:10:46.628Z,98783.88
2023-02-17T05:13:13.244Z,98784.84
2023-02-17T05:15:39.766Z,98800.63
2023-02-17T05:18:07.462Z,98807.53
2023-02-17T05:20:34.458Z,98816.16
2023-02-17T05:23:01.245Z,98742.50
2023-02-17T05:25:27.942Z,98830.69
2023-02-17T05:27:55.598Z,98830.44
2023-02-17T05:30:22.824Z,98832.09
2023-02-17T05:32:49.810Z,98808.69
2023-02-17T05:35:16.660Z,98822.41
2023-02-17T05:37:43.262Z,98826.63
2023-02-17T05:40:10.576Z,98839.53
2023-02-17T05:42:37.320Z,98811.13
2023-02-17T05:45:05.117Z,98818.03
2023-02-17T05:47:32.198Z,98746.59
2023-02-17T05:49:59.855Z,98801.25
2023-02-17T05:52:27.301Z,98812.41
2023-02-17T05:54:55.106Z,98803.09
2023-02-17T05:57:23.517Z,98838.50
2023-02-17T05:59:51.790Z,98803.44
2023-02-17T06:02:18.628Z,98822.59
2023-02-17T06:04:47.970Z,98855.25
2023-02-17T06:07:14.715Z,98864.28
2023-02-17T06:09:41.551Z,98813.03
2023-02-17T06:12:08.151Z,98854.53
2023-02-17T06:14:35.189Z,98830.72
2023-02-17T06:17:04.904Z,98837.69
2023-02-17T06:19:32.904Z,98793.09
2023-02-17T06:22:01.678Z,98834.66
2023-02-17T06:24:30.504Z,98849.50
2023-02-17T06:26:57.441Z,98786.88
2023-02-17T06:29:24.114Z,98876.69
2023-02-17T06:31:52.116Z,98821.97
2023-02-17T06:34:20.428Z,98880.22
2023-02-17T06:36:46.967Z,98832.66
2023-02-17T06:39:13.792Z,98854.53
2023-02-17T06:41:40.551Z,98868.25
2023-02-17T06:44:08.833Z,98874.50
2023-02-17T06:46:36.825Z,98821.28
2023-02-17T06:49:04.313Z,98874.78
2023-02-17T06:51:32.365Z,98821.56
2023-02-17T06:54:00.246Z,98828.28
2023-02-17T06:56:26.950Z,98838.03
2023-02-17T06:58:53.648Z,98850.53
2023-02-17T07:01:24.600Z,98884.84
2023-02-17T07:03:55.237Z,98883.94
2023-02-17T07:06:24.384Z,98864.22
2023-02-17T07:08:52.152Z,98897.88
2023-02-17T07:11:19.572Z,98908.09
2023-02-17T07:13:47.263Z,98903.78
2023-02-17T07:16:17.118Z,98897.84
2023-02-17T07:18:45.447Z,98883.81
2023-02-17T07:21:12.281Z,98915.00
2023-02-17T07:23:39.946Z,98889.34
2023-02-17T07:26:10.524Z,98936.97
2023-02-17T07:28:38.422Z,98929.34
2023-02-17T07:31:10.580Z,98939.56
2023-02-17T07:33:37.667Z,98944.50
2023-02-17T07:36:09.327Z,98851.75
2023-02-17T07:38:37.914Z,98933.38
2023-02-17T07:41:07.532Z,98926.69
2023-02-17T07:43:34.957Z,98892.53
2023-02-17T07:46:03.732Z,98923.63
2023-02-17T07:48:33.756Z,98921.63
2023-02-17T07:51:28.428Z,98917.06
2023-02-17T07:53:56.308Z,98867.56
2023-02-17T07:56:24.556Z,98916.94
2023-02-17T07:58:52.146Z,98838.03
2023-02-17T08:01:23.180Z,98888.06
2023-02-17T08:03:51.807Z,98882.53
2023-02-17T08:06:24.553Z,98875.63
2023-02-17T08:09:10.613Z,98893.13
2023-02-17T08:11:57.628Z,98883.34
2023-02-17T08:14:26.672Z,98882.16
2023-02-17T08:16:53.948Z,98874.75
2023-02-17T08:19:21.482Z,98897.09
2023-02-17T08:21:48.816Z,98871.06
2023-02-17T08:24:20.779Z,98907.19
2023-02-17T08:26:50.055Z,98832.03
2023-02-17T08:29:18.885Z,98929.09
2023-02-17T08:31:45.857Z,98898.13
2023-02-17T08:34:13.955Z,98927.44
2023-02-17T08:36:41.175Z,98922.75
2023-02-17T08:39:12.944Z,98881.44
2023-02-17T08:41:40.916Z,98929.53
2023-02-17T08:44:10.588Z,98914.84
2023-02-17T08:46:38.661Z,98916.47
2023-02-17T08:49:08.045Z,98928.38
2023-02-17T08:51:35.911Z,98926.28
2023-02-17T08:54:06.413Z,98935.66
2023-02-17T08:56:34.139Z,98923.81
2023-02-17T08:59:01.015Z,98904.59
2023-02-17T09:01:28.033Z,98939.13
2023-02-17T09:03:57.790Z,98937.47
2023-02-17T09:06:24.916Z,98935.59
2023-02-17T09:08:53.515Z,98883.00
2023-02-17T09:11:21.444Z,98903.81
2023-02-17T09:13:48.178Z,98928.06
2023-02-17T09:16:15.773Z,98939.75
2023-02-17T09:18:43.645Z,98951.47
2023-02-17T09:21:13.973Z,98974.56
2023-02-17T09:23:41.808Z,98941.69
2023-02-17T09:26:10.936Z,98970.50
2023-02-17T09:28:39.359Z,98963.34
2023-02-17T09:31:10.115Z,98953.53
2023-02-17T09:33:37.643Z,98928.28
2023-02-17T09:36:07.984Z,98949.19
2023-02-17T09:38:35.086Z,98892.09
2023-02-17T09:41:25.901Z,98942.00
2023-02-17T09:43:54.262Z,98868.66
2023-02-17T09:46:24.178Z,98951.66
2023-02-17T09:48:55.796Z,98899.19
2023-02-17T09:51:51.223Z,98923.06
2023-02-17T09:54:28.039Z,98962.31
2023-02-17T09:56:57.220Z,98929.25
2023-02-17T09:59:30.580Z,98949.56
2023-02-17T10:01:58.498Z,98914.09
2023-02-17T10:04:39.395Z,98958.47
2023-02-17T10:07:18.041Z,98929.34
2023-02-17T10:10:14.981Z,98967.13
2023-02-17T10:12:51.360Z,98977.78
2023-02-17T10:15:23.267Z,98944.59
2023-02-17T10:18:28.355Z,98971.47
2023-02-17T10:21:13.255Z,98965.28
2023-02-17T10:23:40.329Z,98973.69
2023-02-17T10:26:26.259Z,98986.28
2023-02-17T10:29:06.172Z,98965.78
2023-02-17T10:31:45.801Z,98998.16
2023-02-17T10:34:18.545Z,99004.38
2023-02-17T10:37:00.516Z,98992.06
2023-02-17T10:39:51.902Z,98985.31
2023-02-17T10:42:27.839Z,98987.69
2023-02-17T10:45:00.636Z,98976.78
2023-02-17T10:47:28.886Z,98960.34
2023-02-17T10:49:57.174Z,98977.78
2023-02-17T10:52:32.928Z,98992.22
2023-02-17T10:55:20.982Z,99000.84
2023-02-17T10:57:57.387Z,98960.19
2023-02-17T11:00:26.789Z,98954.81
2023-02-17T11:02:53.955Z,98916.25
2023-02-17T11:05:25.836Z,98953.97
2023-02-17T11:07:59.726Z,98982.00
2023-02-17T11:10:34.354Z,98942.16
2023-02-17T11:13:03.646Z,98977.38
2023-02-17T11:15:44.562Z,98980.84
2023-02-17T11:18:20.676Z,98978.63
2023-02-17T11:20:48.054Z,98955.22
2023-02-17T11:23:14.729Z,98970.19
2023-02-17T11:25:42.687Z,98973.91
2023-02-17T11:28:24.382Z,98964.88
2023-02-17T11:30:57.261Z,98950.09
2023-02-17T11:33:30.600Z,98970.84
2023-02-17T11:35:59.251Z,98980.88
2023-02-17T11:38:29.575Z,98954.81
2023-02-17T11:41:03.092Z,98966.34
2023-02-17T11:43:33.071Z,98924.69
2023-02-17T11:46:24.952Z,98968.19
2023-02-17T11:48:59.983Z,98965.31
2023-02-17T11:52:02.763Z,98958.94
2023-02-17T11:55:06.306Z,98959.72
2023-02-17T11:58:00.317Z,98952.56
2023-02-17T12:00:31.898Z,98951.75
2023-02-17T12:03:20.596Z,98950.31
2023-02-17T12:06:13.483Z,98958.31
2023-02-17T12:08:50.698Z,98914.78
2023-02-17T12:11:33.451Z,98949.47
2023-02-17T12:14:21.609Z,98939.59
2023-02-17T12:17:05.245Z,98939.97
2023-02-17T12:19:46.238Z,98907.72
2023-02-17T12:22:22.684Z,98942.28
2023-02-17T12:25:18.949Z,98936.56
2023-02-17T12:28:08.487Z,98927.53
2023-02-17T12:30:52.512Z,98876.38
2023-02-17T12:33:34.837Z,98939.97
2023-02-17T12:36:08.498Z,98930.34
2023-02-17T12:38:42.354Z,98925.66
2023-02-17T12:41:15.207Z,98928.53
2023-02-17T12:43:52.849Z,98942.25
2023-02-17T12:46:24.671Z,98913.44
2023-02-17T12:48:53.245Z,98925.97
2023-02-17T12:51:34.785Z,98922.16
2023-02-17T12:54:15.725Z,98917.25
2023-02-17T12:57:12.787Z,98912.31
2023-02-17T12:59:43.489Z,98917.06
2023-02-17T13:02:12.671Z,98864.59
2023-02-17T13:04:42.929Z,98885.25
2023-02-17T13:07:21.300Z,98904.78
2023-02-17T13:09:50.281Z,98909.47
2023-02-17T13:12:24.192Z,98880.94
2023-02-17T13:15:05.281Z,98910.06
2023-02-17T13:17:34.167Z,98897.97
2023-02-17T13:20:07.452Z,98904.78
2023-02-17T13:22:35.693Z,98847.09
2023-02-17T13:25:02.901Z,98870.84
2023-02-17T13:27:33.116Z,98897.00
2023-02-17T13:30:25.933Z,98886.50
2023-02-17T13:33:09.182Z,98857.97
2023-02-17T13:35:37.102Z,98905.56
2023-02-17T13:38:04.218Z,98900.88
2023-02-17T13:40:35.912Z,98900.88
2023-02-17T13:43:31.041Z,98901.03
2023-02-17T13:46:02.746Z,98893.47
2023-02-17T13:48:33.692Z,98882.00
2023-02-17T13:51:09.351Z,98886.31
2023-02-17T13:53:42.869Z,98801.59
2023-02-17T13:56:24.349Z,98889.59
2023-02-17T13:58:50.947Z,98908.41
2023-02-17T14:01:23.824Z,98902.53
2023-02-17T14:04:00.356Z,98912.78
2023-02-17T14:06:34.740Z,98902.47
2023-02-17T14:09:16.652Z,98876.59
2023-02-17T14:11:43.506Z,98898.63
2023-02-17T14:14:11.222Z,98888.59
2023-02-17T14:16:41.476Z,98823.72
2023-02-17T14:19:12.923Z,98888.75
2023-02-17T14:21:42.441Z,98882.75
2023-02-17T14:24:25.493Z,98893.41
2023-02-17T14:27:03.288Z,98884.19
2023-02-17T14:29:47.891Z,98877.03
2023-02-17T14:32:34.122Z,98871.50
2023-02-17T14:35:22.703Z,98872.94
2023-02-17T14:37:52.414Z,98839.69
2023-02-17T14:40:23.692Z,98867.19
2023-02-17T14:42:54.793Z,98811.56
2023-02-17T14:45:21.505Z,98875.38
2023-02-17T14:47:48.435Z,98830.03
2023-02-17T14:50:17.619Z,98871.94
2023-02-17T14:52:49.012Z,98826.94
2023-02-17T14:55:29.428Z,98811.41
2023-02-17T14:57:58.509Z,98865.81
2023-02-17T15:00:26.909Z,98854.25
2023-02-17T15:02:55.400Z,98843.38
2023-02-17T15:05:22.720Z,98823.09
2023-02-17T15:07:50.300Z,98871.75
2023-02-17T15:10:28.440Z,98817.16
2023-02-17T15:12:57.268Z,98864.19
2023-02-17T15:15:24.071Z,98789.69
2023-02-17T15:17:52.097Z,98808.53
2023-02-17T15:20:21.726Z,98844.00
2023-02-17T15:22:52.757Z,98874.63
2023-02-17T15:25:24.597Z,98873.13
2023-02-17T15:27:51.697Z,98871.72
2023-02-17T15:30:22.371Z,98870.22
2023-02-17T15:32:49.205Z,98853.59
2023-02-17T15:35:20.965Z,98867.19
2023-02-17T15:37:48.343Z,98813.22
2023-02-17T15:40:19.617Z,98862.25
2023-02-17T15:42:56.158Z,98815.66
2023-02-17T15:45:27.416Z,98852.16
2023-02-17T15:48:11.502Z,98815.81
2023-02-17T15:50:40.658Z,98873.94
2023-02-17T15:53:08.701Z,98866.34
2023-02-17T15:55:38.211Z,98789.59
2023-02-17T15:58:07.563Z,98833.53
2023-02-17T16:00:36.313Z,98806.03
2023-02-17T16:03:03.242Z,98850.31
2023-02-17T16:05:30.841Z,98852.00
2023-02-17T16:07:57.631Z,98852.00
2023-02-17T16:10:29.633Z,98862.63
2023-02-17T16:12:58.047Z,98862.25
2023-02-17T16:15:29.902Z,98869.84
2023-02-17T16:17:58.287Z,98829.63
2023-02-17T16:20:29.703Z,98784.91
2023-02-17T16:22:59.956Z,98845.84
2023-02-17T16:25:28.646Z,98822.03
2023-02-17T16:27:55.838Z,98851.56
2023-02-17T16:30:33.798Z,98816.28
2023-02-17T16:33:01.657Z,98858.69
2023-02-17T16:35:32.361Z,98864.03
2023-02-17T16:38:00.976Z,98876.56
2023-02-17T16:40:35.005Z,98869.78
2023-02-17T16:43:02.996Z,98877.38
2023-02-17T16:45:31.628Z,98868.53
2023-02-17T16:48:00.758Z,98869.50
2023-02-17T16:50:34.425Z,98816.00
2023-02-17T16:53:04.629Z,98872.69
2023-02-17T16:55:34.094Z,98875.28
2023-02-17T16:58:11.778Z,98887.44
2023-02-17T17:00:40.331Z,98900.34
2023-02-17T17:03:07.370Z,98900.09
2023-02-17T17:05:34.424Z,98915.47
2023-02-17T17:08:01.517Z,98913.00
2023-02-17T17:10:31.778Z,98909.56
2023-02-17T17:13:03.992Z,98931.16
2023-02-17T17:15:35.515Z,98919.22
2023-02-17T17:18:09.101Z,98874.06
2023-02-17T17:20:42.282Z,98924.53
2023-02-17T17:23:25.209Z,98915.53
2023-02-17T17:25:51.915Z,98903.22
2023-02-17T17:28:20.516Z,98893.28
2023-02-17T17:30:49.746Z,98957.38
2023-02-17T17:33:23.913Z,98929.38
2023-02-17T17:35:51.729Z,98929.63
2023-02-17T17:38:22.113Z,98956.50
2023-02-17T17:40:53.201Z,98976.03
2023-02-17T17:43:23.769Z,98976.28
2023-02-17T17:45:58.649Z,98983.22
2023-02-17T17:48:26.034Z,98991.25
2023-02-17T17:50:52.673Z,98923.66
2023-02-17T17:53:20.446Z,98882.59
2023-02-17T17:55:48.196Z,98991.66
2023-02-17T17:58:16.340Z,98962.72
2023-02-17T18:00:43.121Z,98970.50
2023-02-17T18:03:12.177Z,99001.91
2023-02-17T18:05:40.197Z,98944.22
2023-02-17T18:08:07.876Z,99001.91
2023-02-17T18:10:35.297Z,98950.38
2023-02-17T18:13:02.646Z,98969.63
2023-02-17T18:15:31.338Z,99011.13
2023-02-17T18:17:58.895Z,99005.78
2023-02-17T18:20:25.758Z,99006.81
2023-02-17T18:22:52.696Z,98951.38
2023-02-17T18:25:19.416Z,98993.06
2023-02-17T18:27:47.336Z,98874.00
2023-02-17T18:30:18.302Z,98985.69
2023-02-17T18:32:45.525Z,98988.56
2023-02-17T18:35:13.758Z,99000.69
2023-02-17T18:37:41.149Z,98989.16
2023-02-17T18:40:12.848Z,98998.00
2023-02-17T18:42:42.182Z,98994.31
2023-02-17T18:45:09.519Z,99021.78
2023-02-17T18:47:38.324Z,98965.66
2023-02-17T18:50:08.021Z,99020.16
2023-02-17T18:52:37.716Z,98975.72
2023-02-17T18:55:07.209Z,98996.69
2023-02-17T18:57:35.432Z,99019.34
2023-02-17T19:00:03.647Z,99032.03
2023-02-17T19:02:33.913Z,98985.56
2023-02-17T19:05:04.431Z,98906.34
2023-02-17T19:07:34.115Z,99036.38
2023-02-17T19:10:01.589Z,98903.03
2023-02-17T19:12:30.978Z,99030.38
2023-02-17T19:14:59.732Z,99001.84
2023-02-17T19:17:31.909Z,99019.72
2023-02-17T19:19:59.191Z,99032.22
2023-02-17T19:22:27.113Z,99041.91
2023-02-17T19:24:56.103Z,99036.59
2023-02-17T19:27:22.752Z,99035.53
2023-02-17T19:29:49.237Z,99042.94
2023-02-17T19:32:16.131Z,99021.41
2023-02-17T19:34:42.667Z,99045.00
2023-02-17T19:37:09.394Z,98989.97
2023-02-17T19:39:36.211Z,99045.75
2023-02-17T19:42:05.131Z,99032.22
2023-02-17T19:44:32.136Z,99035.75
2023-02-17T19:46:59.161Z,99046.81
2023-02-17T19:49:25.718Z,99058.94
2023-02-17T19:51:53.925Z,99044.31
2023-02-17T19:54:20.623Z,99064.91
2023-02-17T19:56:49.234Z,99037.16
2023-02-17T19:59:16.370Z,99021.16
2023-02-17T20:01:43.474Z,99069.03
2023-02-17T20:04:10.299Z,99046.81
2023-02-17T20:06:43.616Z,99017.44
2023-02-17T20:09:14.999Z,99065.09
2023-02-17T20:11:42.351Z,99045.19
2023-02-17T20:14:11.442Z,99067.38
2023-02-17T20:16:38.775Z,99048.72
2023-02-17T20:19:06.757Z,99072.47
2023-02-17T20:21:35.777Z,99062.63
2023-02-17T20:24:02.720Z,99048.47
2023-02-17T20:26:34.772Z,99060.16
2023-02-17T20:29:02.986Z,99069.41
2023-02-17T20:31:30.005Z,99062.41
2023-02-17T20:33:57.030Z,99062.25
2023-02-17T20:36:24.198Z,99037.75
2023-02-17T20:38:50.964Z,99071.84
2023-02-17T20:41:20.696Z,99078.03
2023-02-17T20:43:48.002Z,99068.16
2023-02-17T20:46:25.607Z,99064.88
2023-02-17T20:48:53.427Z,99076.78
2023-02-17T20:51:20.611Z,99084.56
2023-02-17T20:53:47.443Z,99071.22
2023-02-17T20:56:24.497Z,99084.56
2023-02-17T20:58:52.477Z,99073.69
2023-02-17T21:01:19.848Z,99061.59
2023-02-17T21:03:48.593Z,99026.03
2023-02-17T21:06:22.440Z,99070.22
2023-02-17T21:08:58.583Z,98988.44
2023-02-17T21:11:25.597Z,99073.09
2023-02-17T21:13:52.502Z,99059.09
2023-02-17T21:16:23.397Z,99057.84
2023-02-17T21:18:50.529Z,99026.84
2023-02-17T21:21:17.983Z,99023.13
2023-02-17T21:23:44.978Z,99066.50
2023-02-17T21:26:12.990Z,99062.41
2023-02-17T21:28:39.682Z,99062.78
2023-02-17T21:31:06.966Z,99047.59
2023-02-17T21:33:33.851Z,99060.75
2023-02-17T21:36:08.097Z,99064.03
2023-02-17T21:38:35.424Z,99058.69
2023-02-17T21:41:11.162Z,99051.31
2023-02-17T21:46:46.669Z,99059.28
2023-02-17T21:49:13.396Z,99054.19
2023-02-17T21:51:40.291Z,99038.34
2023-02-17T21:54:08.689Z,99057.84
2023-02-17T21:56:36.360Z,99054.59
2023-02-17T21:59:03.715Z,99066.28
2023-02-17T22:01:31.801Z,99064.03
2023-02-17T22:03:58.444Z,99042.09
2023-02-17T22:06:33.826Z,99051.75
2023-02-17T22:09:00.588Z,99027.34
2023-02-17T22:11:31.835Z,99050.13
2023-02-17T22:14:02.190Z,99048.88
2023-02-17T22:16:35.030Z,99051.31
2023-02-17T22:19:03.689Z,99058.91
2023-02-17T22:21:30.976Z,99053.38
2023-02-17T22:23:58.892Z,99025.28
2023-02-17T22:26:29.446Z,99022.22
2023-02-17T22:28:56.975Z,99029.59
2023-02-17T22:31:27.269Z,99064.47
2023-02-17T22:33:56.263Z,99058.75
2023-02-17T22:36:24.567Z,99041.47
2023-02-17T22:38:52.454Z,99057.47
2023-02-17T22:41:21.099Z,99046.41
2023-02-17T22:43:50.472Z,99046.03
2023-02-17T22:46:19.130Z,99022.22
2023-02-17T22:48:48.779Z,99051.53
2023-02-17T22:51:25.171Z,99058.34
2023-02-17T22:53:51.933Z,99061.63
2023-02-17T22:56:19.343Z,99065.94
2023-02-17T22:58:46.660Z,99045.38
2023-02-17T23:01:44.610Z,99055.03
2023-02-17T23:04:37.976Z,99022.22
2023-02-17T23:07:04.596Z,99044.81
2023-02-17T23:09:32.009Z,99042.38
2023-02-17T23:12:00.298Z,99021.81
2023-02-17T23:14:36.240Z,99023.88
2023-02-17T23:17:08.623Z,99023.44
2023-02-17T23:19:36.193Z,99026.56
2023-02-17T23:22:07.239Z,99020.00
2023-02-17T23:24:34.357Z,99035.38
2023-02-17T23:27:01.793Z,99029.22
2023-02-17T23:29:30.912Z,99029.84
2023-02-17T23:31:59.098Z,99015.69
2023-02-17T23:34:26.459Z,99032.88
2023-02-17T23:36:52.990Z,99034.94
2023-02-17T23:39:20.868Z,99039.03
2023-02-17T23:41:47.375Z,99051.38
2023-02-17T23:44:15.267Z,99053.41
2023-02-17T23:46:43.570Z,99035.56
2023-02-17T23:49:14.154Z,99022.66
2023-02-17T23:51:41.338Z,99040.28
2023-02-17T23:54:07.908Z,99003.34
2023-02-17T23:56:35.916Z,99029.22
2023-02-17T23:59:05.652Z,99035.00
